createdAt,value
2018-03-24T00:02:23.859Z,78.70
2018-03-24T00:04:51.833Z,79.70
2018-03-24T00:07:19.902Z,77.60
2018-03-24T00:09:48.277Z,77.60
2018-03-24T00:12:16.533Z,77.80
2018-03-24T00:14:44.557Z,76.50
2018-03-24T00:17:13.406Z,79.60
2018-03-24T00:19:41.483Z,79.60
2018-03-24T00:22:09.358Z,80.70
2018-03-24T00:24:37.314Z,81.40
2018-03-24T00:27:05.519Z,81.70
2018-03-24T00:29:33.362Z,81.70
2018-03-24T00:32:01.429Z,81.30
2018-03-24T00:34:29.189Z,81.10
2018-03-24T00:36:57.259Z,80.80
2018-03-24T00:39:25.127Z,80.50
2018-03-24T00:41:53.094Z,80.60
2018-03-24T00:44:21.055Z,80.10
2018-03-24T00:46:48.925Z,80.70
2018-03-24T00:49:17.000Z,80.80
2018-03-24T00:51:45.097Z,80.70
2018-03-24T00:54:13.147Z,81.20
2018-03-24T00:56:41.214Z,80.50
2018-03-24T00:59:09.193Z,80.20
2018-03-24T01:01:38.477Z,80.70
2018-03-24T01:04:06.703Z,80.70
2018-03-24T01:06:35.744Z,80.80
2018-03-24T01:09:04.128Z,80.80
2018-03-24T01:11:32.146Z,80.30
2018-03-24T01:14:00.059Z,80.80
2018-03-24T01:16:27.928Z,81.30
2018-03-24T01:18:55.893Z,81.40
2018-03-24T01:21:23.791Z,80.80
2018-03-24T01:23:51.837Z,81.40
2018-03-24T01:26:20.774Z,82.70
2018-03-24T01:28:49.797Z,83.40
2018-03-24T01:31:17.793Z,83.40
2018-03-24T01:33:45.653Z,83.60
2018-03-24T01:36:13.735Z,82.90
2018-03-24T01:38:41.728Z,82.80
2018-03-24T01:41:10.698Z,82.20
2018-03-24T01:43:38.654Z,82.10
2018-03-24T01:46:06.624Z,81.80
2018-03-24T01:48:34.590Z,81.60
2018-03-24T01:51:02.658Z,81.10
2018-03-24T01:53:42.504Z,81.00
2018-03-24T01:56:10.610Z,80.90
2018-03-24T01:58:38.443Z,80.90
2018-03-24T02:01:06.339Z,81.30
2018-03-24T02:03:34.284Z,80.90
2018-03-24T02:06:02.045Z,80.80
2018-03-24T02:08:30.008Z,81.90
2018-03-24T02:10:57.978Z,81.70
2018-03-24T02:13:25.979Z,81.30
2018-03-24T02:15:54.938Z,80.60
2018-03-24T02:18:22.708Z,81.30
2018-03-24T02:20:56.757Z,81.10
2018-03-24T02:23:25.297Z,81.00
2018-03-24T02:25:53.263Z,81.00
2018-03-24T02:28:21.262Z,81.80
2018-03-24T02:30:49.333Z,81.40
2018-03-24T02:33:17.584Z,81.90
2018-03-24T02:35:45.559Z,82.60
2018-03-24T02:38:13.635Z,81.60
2018-03-24T02:40:41.900Z,81.50
2018-03-24T02:43:09.982Z,80.50
2018-03-24T02:45:37.843Z,80.60
2018-03-24T02:48:05.706Z,80.80
2018-03-24T02:50:33.563Z,80.40
2018-03-24T02:53:01.534Z,81.10
2018-03-24T02:55:29.603Z,80.80
2018-03-24T02:57:57.371Z,80.40
2018-03-24T03:00:25.361Z,80.20
2018-03-24T03:02:53.720Z,79.90
2018-03-24T03:05:22.408Z,80.60
2018-03-24T03:07:50.263Z,80.50
2018-03-24T03:10:18.332Z,80.50
2018-03-24T03:12:46.539Z,80.30
2018-03-24T03:15:14.672Z,80.30
2018-03-24T03:17:42.753Z,81.10
2018-03-24T03:20:10.858Z,81.80
2018-03-24T03:22:39.813Z,83.50
2018-03-24T03:25:07.784Z,83.40
2018-03-24T03:27:35.756Z,84.70
2018-03-24T03:30:04.129Z,85.70
2018-03-24T03:32:31.993Z,85.90
2018-03-24T03:35:00.170Z,85.50
2018-03-24T03:37:28.274Z,85.00
2018-03-24T03:39:56.417Z,84.80
2018-03-24T03:42:24.489Z,85.20
2018-03-24T03:44:52.373Z,85.20
2018-03-24T03:47:20.444Z,85.10
2018-03-24T03:49:48.699Z,84.70
2018-03-24T03:52:16.573Z,84.70
2018-03-24T03:54:44.534Z,84.40
2018-03-24T03:57:12.293Z,83.80
2018-03-24T03:59:40.264Z,83.80
2018-03-24T04:02:08.433Z,83.50
2018-03-24T04:04:36.318Z,83.80
2018-03-24T04:07:05.400Z,83.50
2018-03-24T04:09:33.263Z,83.00
2018-03-24T04:12:01.574Z,82.90
2018-03-24T04:14:29.513Z,83.90
2018-03-24T04:16:57.784Z,84.30
2018-03-24T04:19:25.771Z,83.80
2018-03-24T04:21:53.718Z,84.20
2018-03-24T04:24:21.488Z,84.20
2018-03-24T04:26:49.753Z,83.80
2018-03-24T04:29:17.827Z,83.50
2018-03-24T04:31:45.898Z,83.20
2018-03-24T04:34:13.874Z,83.10
2018-03-24T04:36:41.934Z,83.60
2018-03-24T04:39:10.014Z,83.00
2018-03-24T04:41:37.985Z,83.40
2018-03-24T04:44:06.158Z,83.10
2018-03-24T04:46:34.323Z,83.10
2018-03-24T04:49:02.292Z,82.70
2018-03-24T04:51:30.271Z,82.90
2018-03-24T04:53:58.359Z,83.20
2018-03-24T04:56:26.223Z,83.60
2018-03-24T04:58:54.197Z,83.90
2018-03-24T05:01:22.444Z,83.70
2018-03-24T05:03:50.434Z,83.90
2018-03-24T05:06:18.398Z,83.90
2018-03-24T05:08:46.353Z,84.20
2018-03-24T05:11:14.204Z,84.00
2018-03-24T05:13:42.288Z,84.40
2018-03-24T05:16:10.480Z,84.10
2018-03-24T05:18:38.628Z,84.40
2018-03-24T05:21:06.804Z,84.60
2018-03-24T05:23:34.774Z,84.90
2018-03-24T05:26:02.983Z,85.60
2018-03-24T05:28:31.838Z,85.30
2018-03-24T05:30:59.846Z,85.10
2018-03-24T05:33:27.673Z,85.30
2018-03-24T05:35:55.643Z,84.40
2018-03-24T05:38:23.813Z,85.70
2018-03-24T05:40:51.887Z,85.40
2018-03-24T05:43:20.062Z,84.10
2018-03-24T05:45:48.036Z,84.20
2018-03-24T05:48:16.013Z,85.00
2018-03-24T05:50:44.253Z,85.10
2018-03-24T05:53:11.938Z,85.00
2018-03-24T05:55:39.903Z,84.80
2018-03-24T05:58:08.172Z,84.80
2018-03-24T06:00:36.452Z,85.70
2018-03-24T06:03:04.423Z,85.70
2018-03-24T06:05:32.183Z,85.60
2018-03-24T06:08:00.150Z,85.30
2018-03-24T06:10:28.328Z,84.20
2018-03-24T06:12:56.628Z,84.50
2018-03-24T06:15:24.588Z,84.40
2018-03-24T06:17:52.537Z,84.00
2018-03-24T06:20:20.508Z,83.40
2018-03-24T06:22:48.589Z,82.70
2018-03-24T06:25:16.653Z,82.00
2018-03-24T06:27:44.409Z,81.60
2018-03-24T06:30:13.841Z,81.10
2018-03-24T06:32:42.091Z,81.40
2018-03-24T06:35:09.956Z,81.60
2018-03-24T06:37:38.034Z,81.30
2018-03-24T06:40:06.337Z,80.30
2018-03-24T06:42:35.091Z,79.10
2018-03-24T06:45:03.054Z,79.00
2018-03-24T06:47:31.023Z,77.30
2018-03-24T06:49:59.309Z,77.60
2018-03-24T06:52:27.226Z,76.80
2018-03-24T06:54:55.037Z,76.30
2018-03-24T06:57:23.207Z,76.20
2018-03-24T06:59:51.092Z,75.10
2018-03-24T07:02:18.964Z,74.10
2018-03-24T07:04:46.833Z,74.30
2018-03-24T07:07:15.392Z,72.70
2018-03-24T07:09:43.253Z,72.70
2018-03-24T07:12:11.342Z,72.40
2018-03-24T07:14:39.089Z,73.30
2018-03-24T07:17:07.165Z,72.10
2018-03-24T07:19:36.047Z,71.80
2018-03-24T07:22:04.329Z,71.70
2018-03-24T07:24:31.979Z,71.30
2018-03-24T07:27:00.082Z,73.50
2018-03-24T07:29:28.123Z,72.80
2018-03-24T07:31:56.094Z,74.40
2018-03-24T07:34:23.958Z,73.60
2018-03-24T07:36:51.958Z,73.90
2018-03-24T07:39:19.806Z,75.20
2018-03-24T07:41:47.662Z,74.40
2018-03-24T07:44:15.557Z,74.30
2018-03-24T07:46:43.504Z,74.50
2018-03-24T07:49:11.278Z,76.00
2018-03-24T07:51:39.639Z,75.70
2018-03-24T07:54:08.386Z,76.30
2018-03-24T07:56:36.387Z,76.90
2018-03-24T07:59:04.266Z,75.90
2018-03-24T08:01:32.335Z,75.60
2018-03-24T08:04:00.408Z,75.10
2018-03-24T08:06:28.098Z,74.60
2018-03-24T08:08:56.038Z,75.20
2018-03-24T08:11:24.108Z,74.80
2018-03-24T08:13:51.978Z,74.50
2018-03-24T08:16:19.991Z,74.00
2018-03-24T08:18:48.828Z,75.00
2018-03-24T08:21:16.798Z,74.90
2018-03-24T08:23:44.564Z,75.80
2018-03-24T08:26:12.428Z,75.70
2018-03-24T08:28:40.318Z,75.60
2018-03-24T08:31:08.261Z,75.20
2018-03-24T08:33:35.928Z,75.00
2018-03-24T08:36:03.788Z,73.90
2018-03-24T08:38:31.863Z,72.80
2018-03-24T08:40:59.558Z,72.50
2018-03-24T08:43:28.528Z,72.50
2018-03-24T08:45:56.162Z,71.60
2018-03-24T08:48:24.144Z,72.10
2018-03-24T08:50:52.318Z,70.10
2018-03-24T08:53:20.379Z,70.20
2018-03-24T08:55:48.459Z,71.30
2018-03-24T08:58:16.323Z,70.10
2018-03-24T09:00:44.603Z,69.30
2018-03-24T09:03:12.568Z,68.30
2018-03-24T09:05:40.548Z,69.50
2018-03-24T09:08:08.295Z,69.70
2018-03-24T09:10:36.084Z,68.80
2018-03-24T09:13:04.239Z,68.20
2018-03-24T09:15:32.119Z,68.10
2018-03-24T09:17:59.998Z,67.30
2018-03-24T09:20:27.843Z,67.90
2018-03-24T09:22:56.035Z,67.20
2018-03-24T09:25:23.908Z,67.50
2018-03-24T09:27:52.778Z,68.40
2018-03-24T09:30:20.740Z,69.40
2018-03-24T09:32:48.938Z,68.50
2018-03-24T09:35:16.783Z,68.60
2018-03-24T09:37:45.159Z,68.70
2018-03-24T09:40:13.122Z,68.30
2018-03-24T09:42:42.243Z,66.30
2018-03-24T09:45:10.289Z,66.20
2018-03-24T09:47:38.167Z,63.90
2018-03-24T09:50:06.034Z,61.70
2018-03-24T09:52:33.991Z,60.10
2018-03-24T09:55:02.283Z,59.30
2018-03-24T09:57:30.256Z,58.60
2018-03-24T09:59:58.006Z,56.70
2018-03-24T10:02:25.976Z,55.50
2018-03-24T10:04:54.959Z,55.90
2018-03-24T10:07:22.831Z,54.80
2018-03-24T10:09:50.905Z,51.40
2018-03-24T10:12:19.386Z,53.30
2018-03-24T10:14:47.353Z,52.90
2018-03-24T10:17:15.317Z,53.00
2018-03-24T10:19:43.209Z,53.00
2018-03-24T10:25:16.414Z,54.40
2018-03-24T10:27:44.625Z,54.40
2018-03-24T10:30:13.274Z,54.70
2018-03-24T10:32:41.915Z,54.70
2018-03-24T10:35:09.908Z,55.60
2018-03-24T10:37:43.504Z,53.80
2018-03-24T10:40:11.394Z,53.20
2018-03-24T10:42:39.166Z,52.20
2018-03-24T10:45:07.224Z,53.70
2018-03-24T10:47:35.176Z,53.80
2018-03-24T10:50:03.252Z,53.60
2018-03-24T10:52:31.374Z,53.40
2018-03-24T10:55:00.216Z,48.90
2018-03-24T10:57:28.290Z,48.20
2018-03-24T10:59:56.378Z,44.30
2018-03-24T11:02:24.267Z,41.50
2018-03-24T11:04:52.799Z,39.10
2018-03-24T11:07:20.896Z,39.00
2018-03-24T11:09:48.744Z,38.00
2018-03-24T11:12:16.529Z,35.40
2018-03-24T11:14:44.424Z,36.50
2018-03-24T11:17:13.060Z,38.60
2018-03-24T11:19:40.918Z,38.50
2018-03-24T11:22:09.093Z,42.80
2018-03-24T11:24:37.376Z,44.90
2018-03-24T11:27:05.331Z,43.90
2018-03-24T11:29:33.336Z,45.50
2018-03-24T11:32:01.077Z,45.90
2018-03-24T11:34:28.935Z,48.00
2018-03-24T11:36:56.905Z,43.70
2018-03-24T11:39:24.674Z,41.50
2018-03-24T11:41:52.433Z,41.20
2018-03-24T11:44:20.051Z,40.50
2018-03-24T11:46:47.864Z,39.70
2018-03-24T11:49:15.624Z,41.20
2018-03-24T11:51:43.709Z,40.60
2018-03-24T11:54:11.794Z,41.30
2018-03-24T11:56:39.628Z,41.50
2018-03-24T11:59:08.228Z,42.00
2018-03-24T12:01:36.084Z,43.40
2018-03-24T12:04:04.085Z,42.30
2018-03-24T12:06:32.743Z,42.20
2018-03-24T12:09:00.708Z,42.20
2018-03-24T12:11:28.459Z,42.60
2018-03-24T12:13:57.254Z,40.00
2018-03-24T12:16:25.255Z,40.00
2018-03-24T12:18:53.329Z,39.90
2018-03-24T12:21:21.466Z,39.10
2018-03-24T12:23:49.640Z,31.00
2018-03-24T12:26:17.628Z,29.50
2018-03-24T12:28:45.741Z,29.30
2018-03-24T12:31:13.556Z,29.00
2018-03-24T12:33:41.516Z,29.10
2018-03-24T12:36:09.717Z,29.00
2018-03-24T12:38:37.556Z,31.40
2018-03-24T12:41:05.324Z,33.90
2018-03-24T12:43:33.388Z,35.30
2018-03-24T12:46:01.366Z,35.80
2018-03-24T12:48:29.251Z,35.40
2018-03-24T12:50:57.432Z,36.00
2018-03-24T12:53:25.483Z,35.40
2018-03-24T12:55:53.243Z,35.20
2018-03-24T12:58:21.021Z,35.90
2018-03-24T13:00:49.270Z,35.90
2018-03-24T13:03:17.175Z,35.60
2018-03-24T13:05:45.108Z,35.40
2018-03-24T13:08:13.080Z,36.60
2018-03-24T13:10:41.353Z,35.00
2018-03-24T13:13:10.162Z,34.10
2018-03-24T13:15:38.212Z,31.00
2018-03-24T13:18:06.178Z,29.80
2018-03-24T13:20:34.369Z,30.10
2018-03-24T13:23:02.536Z,29.70
2018-03-24T13:25:31.437Z,32.30
2018-03-24T13:27:59.388Z,32.20
2018-03-24T13:30:27.672Z,32.20
2018-03-24T13:32:55.738Z,32.50
2018-03-24T13:35:23.711Z,34.80
2018-03-24T13:37:51.782Z,34.50
2018-03-24T13:40:19.840Z,34.40
2018-03-24T13:42:47.835Z,34.90
2018-03-24T13:45:15.675Z,33.70
2018-03-24T13:47:43.645Z,33.60
2018-03-24T13:50:11.515Z,33.40
2018-03-24T13:52:39.480Z,40.40
2018-03-24T13:55:07.580Z,40.00
2018-03-24T13:57:35.421Z,40.20
2018-03-24T14:00:04.263Z,42.30
2018-03-24T14:02:33.304Z,42.60
2018-03-24T14:05:01.302Z,42.50
2018-03-24T14:07:29.338Z,42.00
2018-03-24T14:09:57.512Z,43.30
2018-03-24T14:12:25.610Z,42.50
2018-03-24T14:14:53.560Z,43.00
2018-03-24T14:17:21.808Z,42.30
2018-03-24T14:19:49.605Z,43.10
2018-03-24T14:22:17.595Z,43.00
2018-03-24T14:24:45.339Z,42.50
2018-03-24T14:27:13.410Z,42.50
2018-03-24T14:29:41.155Z,42.70
2018-03-24T14:32:09.543Z,43.70
2018-03-24T14:34:37.713Z,43.50
2018-03-24T14:37:05.581Z,43.90
2018-03-24T14:39:33.446Z,42.90
2018-03-24T14:42:01.847Z,45.10
2018-03-24T14:44:29.722Z,44.70
2018-03-24T14:46:57.662Z,44.80
2018-03-24T14:49:25.830Z,44.60
2018-03-24T14:51:53.592Z,44.60
2018-03-24T14:54:21.362Z,45.10
2018-03-24T14:56:49.331Z,45.20
2018-03-24T14:59:17.203Z,44.90
2018-03-24T15:01:45.161Z,45.20
2018-03-24T15:04:13.146Z,46.40
2018-03-24T15:06:41.001Z,46.00
2018-03-24T15:09:08.962Z,46.50
2018-03-24T15:11:36.933Z,45.80
2018-03-24T15:14:05.030Z,46.00
2018-03-24T15:16:33.263Z,45.30
2018-03-24T15:19:01.260Z,46.90
2018-03-24T15:21:30.242Z,45.70
2018-03-24T15:23:58.725Z,45.60
2018-03-24T15:26:26.732Z,45.60
2018-03-24T15:29:07.464Z,44.90
2018-03-24T15:31:47.309Z,44.80
2018-03-24T15:34:26.788Z,45.40
2018-03-24T15:36:55.529Z,45.50
2018-03-24T15:39:23.602Z,45.40
2018-03-24T15:41:51.572Z,45.30
2018-03-24T15:44:19.538Z,45.30
2018-03-24T15:46:47.551Z,45.20
2018-03-24T15:49:16.092Z,45.60
2018-03-24T15:51:44.056Z,45.60
2018-03-24T15:54:11.945Z,44.90
2018-03-24T15:56:40.838Z,46.00
2018-03-24T15:59:08.919Z,46.00
2018-03-24T16:01:37.161Z,45.70
2018-03-24T16:04:05.372Z,45.10
2018-03-24T16:06:34.429Z,45.10
2018-03-24T16:09:03.322Z,46.10
2018-03-24T16:11:31.708Z,46.00
2018-03-24T16:13:59.574Z,47.30
2018-03-24T16:16:27.432Z,48.40
2018-03-24T16:18:55.502Z,48.40
2018-03-24T16:21:23.516Z,48.90
2018-03-24T16:23:52.173Z,49.90
2018-03-24T16:26:20.329Z,49.90
2018-03-24T16:28:48.320Z,49.50
2018-03-24T16:31:16.381Z,49.50
2018-03-24T16:33:44.337Z,49.80
2018-03-24T16:36:12.664Z,49.50
2018-03-24T16:38:41.196Z,49.80
2018-03-24T16:41:08.964Z,49.70
2018-03-24T16:43:36.819Z,50.40
2018-03-24T16:46:04.705Z,50.10
2018-03-24T16:48:32.676Z,50.30
2018-03-24T16:51:00.638Z,50.10
2018-03-24T16:53:28.605Z,49.50
2018-03-24T16:55:56.500Z,50.20
2018-03-24T16:58:25.246Z,50.90
2018-03-24T17:00:53.530Z,50.90
2018-03-24T17:03:21.407Z,50.90
2018-03-24T17:05:49.370Z,51.40
2018-03-24T17:08:17.354Z,51.70
2018-03-24T17:10:45.348Z,51.10
2018-03-24T17:13:13.922Z,52.20
2018-03-24T17:15:42.476Z,52.20
2018-03-24T17:18:10.459Z,52.20
2018-03-24T17:20:38.740Z,52.10
2018-03-24T17:23:06.574Z,53.00
2018-03-24T17:25:34.750Z,52.50
2018-03-24T17:28:02.707Z,53.00
2018-03-24T17:30:30.784Z,53.00
2018-03-24T17:32:58.689Z,53.00
2018-03-24T17:35:27.568Z,54.00
2018-03-24T17:37:57.052Z,54.40
2018-03-24T17:40:25.115Z,54.40
2018-03-24T17:42:52.786Z,54.40
2018-03-24T17:45:21.159Z,54.60
2018-03-24T17:47:49.131Z,55.10
2018-03-24T17:50:17.204Z,55.60
2018-03-24T17:52:45.067Z,55.60
2018-03-24T17:55:12.777Z,56.00
2018-03-24T17:57:41.408Z,56.70
2018-03-24T18:00:09.279Z,56.70
2018-03-24T18:02:37.038Z,56.70
2018-03-24T18:05:04.928Z,56.80
2018-03-24T18:07:32.693Z,57.20
2018-03-24T18:10:00.443Z,58.20
2018-03-24T18:12:28.401Z,57.10
2018-03-24T18:14:56.163Z,57.80
2018-03-24T18:17:24.156Z,57.80
2018-03-24T18:19:52.444Z,58.00
2018-03-24T18:22:22.467Z,58.00
2018-03-24T18:24:51.078Z,58.00
2018-03-24T18:27:23.428Z,58.80
2018-03-24T18:29:58.177Z,58.50
2018-03-24T18:32:28.510Z,58.30
2018-03-24T18:34:57.279Z,58.50
2018-03-24T18:37:27.562Z,58.20
2018-03-24T18:39:57.783Z,59.00
2018-03-24T18:42:26.555Z,59.00
2018-03-24T18:44:54.338Z,59.00
2018-03-24T18:47:22.183Z,59.00
2018-03-24T18:49:49.949Z,59.00
2018-03-24T18:52:17.758Z,58.90
2018-03-24T18:54:46.290Z,58.40
2018-03-24T18:57:13.969Z,58.30
2018-03-24T18:59:41.726Z,59.30
2018-03-24T19:02:09.484Z,59.00
2018-03-24T19:04:37.249Z,58.90
2018-03-24T19:07:04.928Z,58.50
2018-03-24T19:09:32.774Z,58.70
2018-03-24T19:12:00.440Z,59.10
2018-03-24T19:14:28.303Z,59.40
2018-03-24T19:16:56.274Z,59.50
2018-03-24T19:19:25.058Z,59.90
2018-03-24T19:21:52.830Z,59.20
2018-03-24T19:24:20.605Z,58.70
2018-03-24T19:26:48.291Z,59.00
2018-03-24T19:29:16.836Z,58.70
2018-03-24T19:31:44.594Z,58.70
2018-03-24T19:34:12.471Z,58.30
2018-03-24T19:36:40.329Z,57.80
2018-03-24T19:39:08.333Z,58.30
2018-03-24T19:41:37.090Z,58.10
2018-03-24T19:44:04.954Z,57.80
2018-03-24T19:46:32.713Z,57.40
2018-03-24T19:49:00.486Z,57.70
2018-03-24T19:51:28.334Z,57.80
2018-03-24T19:53:56.333Z,57.70
2018-03-24T19:56:24.179Z,57.80
2018-03-24T19:58:52.701Z,57.90
2018-03-24T20:01:21.344Z,58.20
2018-03-24T20:03:49.117Z,58.20
2018-03-24T20:06:16.880Z,57.70
2018-03-24T20:08:44.650Z,58.40
2018-03-24T20:11:12.733Z,58.00
2018-03-24T20:13:41.494Z,58.10
2018-03-24T20:16:09.773Z,58.10
2018-03-24T20:18:37.778Z,58.30
2018-03-24T20:21:06.323Z,58.30
2018-03-24T20:23:34.492Z,58.10
2018-03-24T20:26:02.593Z,58.20
2018-03-24T20:28:30.746Z,58.20
2018-03-24T20:30:59.089Z,58.40
2018-03-24T20:33:26.795Z,58.60
2018-03-24T20:35:54.649Z,59.00
2018-03-24T20:38:25.922Z,59.60
2018-03-24T20:40:58.908Z,59.00
2018-03-24T20:43:27.495Z,59.30
2018-03-24T20:45:55.449Z,59.70
2018-03-24T20:48:23.185Z,59.80
2018-03-24T20:50:51.267Z,60.70
2018-03-24T20:53:19.043Z,61.20
2018-03-24T20:55:53.839Z,61.20
2018-03-24T20:58:21.733Z,61.70
2018-03-24T21:00:49.804Z,62.20
2018-03-24T21:03:17.777Z,62.00
2018-03-24T21:05:45.565Z,62.70
2018-03-24T21:08:14.319Z,63.10
2018-03-24T21:10:42.389Z,63.10
2018-03-24T21:13:10.186Z,62.40
2018-03-24T21:15:40.516Z,61.20
2018-03-24T21:18:09.292Z,62.00
2018-03-24T21:20:37.051Z,61.90
2018-03-24T21:23:05.203Z,62.10
2018-03-24T21:25:33.168Z,61.80
2018-03-24T21:28:00.934Z,62.40
2018-03-24T21:30:28.802Z,62.10
2018-03-24T21:32:56.582Z,62.40
2018-03-24T21:35:24.453Z,62.50
2018-03-24T21:37:52.298Z,61.70
2018-03-24T21:40:20.469Z,62.40
2018-03-24T21:42:48.662Z,62.00
2018-03-24T21:45:16.533Z,61.90
2018-03-24T21:47:44.474Z,62.50
2018-03-24T21:50:12.649Z,63.10
2018-03-24T21:52:40.532Z,62.30
2018-03-24T21:55:08.623Z,63.40
2018-03-24T21:57:37.373Z,64.40
2018-03-24T22:00:05.468Z,63.70
2018-03-24T22:02:33.822Z,63.70
2018-03-24T22:05:01.788Z,63.70
2018-03-24T22:07:30.169Z,64.30
2018-03-24T22:09:58.239Z,64.30
2018-03-24T22:12:26.008Z,64.20
2018-03-24T22:14:53.973Z,64.40
2018-03-24T22:17:21.942Z,65.50
2018-03-24T22:19:50.013Z,64.60
2018-03-24T22:22:17.968Z,66.10
2018-03-24T22:24:45.958Z,66.50
2018-03-24T22:27:14.126Z,66.40
2018-03-24T22:29:42.094Z,66.00
2018-03-24T22:32:09.961Z,66.50
2018-03-24T22:34:38.036Z,66.80
2018-03-24T22:37:07.043Z,67.40
2018-03-24T22:39:34.912Z,67.40
2018-03-24T22:42:02.961Z,66.30
2018-03-24T22:44:30.724Z,66.70
2018-03-24T22:46:58.695Z,67.10
2018-03-24T22:49:26.608Z,67.00
2018-03-24T22:51:55.348Z,67.80
2018-03-24T22:54:23.314Z,67.80
2018-03-24T22:56:51.198Z,66.70
2018-03-24T22:59:19.166Z,67.20
2018-03-24T23:01:47.218Z,68.00
2018-03-24T23:04:15.493Z,67.10
2018-03-24T23:06:43.664Z,67.20
2018-03-24T23:09:11.653Z,67.00
2018-03-24T23:11:39.703Z,67.30
2018-03-24T23:14:07.676Z,67.20
2018-03-24T23:16:35.762Z,67.20
2018-03-24T23:19:03.849Z,67.10
2018-03-24T23:21:32.716Z,67.60
2018-03-24T23:24:00.596Z,67.60
2018-03-24T23:26:28.458Z,67.20
2018-03-24T23:28:56.408Z,67.40
2018-03-24T23:31:24.376Z,67.60
2018-03-24T23:33:52.354Z,68.80
2018-03-24T23:36:20.413Z,68.70
2018-03-24T23:38:48.382Z,68.60
2018-03-24T23:41:16.663Z,68.50
2018-03-24T23:43:44.839Z,68.40
2018-03-24T23:46:12.801Z,67.70
2018-03-24T23:48:40.689Z,67.70
2018-03-24T23:51:08.636Z,68.50
2018-03-24T23:53:36.610Z,68.60
2018-03-24T23:56:04.808Z,69.30
2018-03-24T23:58:32.876Z,68.50
